Terminal Aerodrome Forecast
Issued by NWS Omaha/Valley, NE

Home | Current Version | Previous Version | Text Only | Print | Product List | Glossary On
Versions: 1 2 3 4 5 6 7 8 9 10 11 12 13 14 15 16 17 18 19 20 21 22 23 24 25 26 27 28 29 30 31
417
FTUS43 KOAX 291548 AAC
TAFLNK
TAF AMD
KLNK 291548Z 2916/3012 36004KT P6SM SCT050
      TEMPO 2916/2917 4SM -RA SCT010
     FM291700 02008KT P6SM SCT050
     FM300400 03004KT P6SM SCT200=

USA.gov is the U.S. government's official web portal to all federal, state and local government web resources and services.